sensor_id;sensor_type;location;lat;lon;timestamp;P1;durP1;ratioP1;P2;durP2;ratioP2
29210;SDS011;16250;49.932;10.980;2023-04-25T00:00:14;56.05;;;53.25;;
29210;SDS011;16250;49.932;10.980;2023-04-25T00:02:39;52.78;;;50.17;;
29210;SDS011;16250;49.932;10.980;2023-04-25T00:05:05;49.97;;;47.45;;
29210;SDS011;16250;49.932;10.980;2023-04-25T00:07:30;51.90;;;49.30;;
29210;SDS011;16250;49.932;10.980;2023-04-25T00:09:57;54.40;;;51.60;;
29210;SDS011;16250;49.932;10.980;2023-04-25T00:12:22;50.33;;;47.80;;
29210;SDS011;16250;49.932;10.980;2023-04-25T00:14:48;54.80;;;52.20;;
29210;SDS011;16250;49.932;10.980;2023-04-25T00:17:14;54.90;;;52.10;;
29210;SDS011;16250;49.932;10.980;2023-04-25T00:19:41;60.55;;;57.65;;
29210;SDS011;16250;49.932;10.980;2023-04-25T00:22:07;65.65;;;62.50;;
29210;SDS011;16250;49.932;10.980;2023-04-25T00:24:32;70.45;;;66.97;;
29210;SDS011;16250;49.932;10.980;2023-04-25T00:26:58;66.03;;;62.90;;
29210;SDS011;16250;49.932;10.980;2023-04-25T00:29:23;70.72;;;67.32;;
29210;SDS011;16250;49.932;10.980;2023-04-25T00:31:48;67.38;;;64.28;;
29210;SDS011;16250;49.932;10.980;2023-04-25T00:34:14;66.45;;;63.30;;
29210;SDS011;16250;49.932;10.980;2023-04-25T00:36:39;66.75;;;63.55;;
29210;SDS011;16250;49.932;10.980;2023-04-25T00:39:04;59.55;;;56.75;;
29210;SDS011;16250;49.932;10.980;2023-04-25T00:41:31;52.60;;;50.17;;
29210;SDS011;16250;49.932;10.980;2023-04-25T00:43:57;57.45;;;54.75;;
29210;SDS011;16250;49.932;10.980;2023-04-25T00:46:24;54.70;;;52.00;;
29210;SDS011;16250;49.932;10.980;2023-04-25T00:48:49;61.75;;;58.78;;
29210;SDS011;16250;49.932;10.980;2023-04-25T00:51:19;61.92;;;59.00;;
29210;SDS011;16250;49.932;10.980;2023-04-25T00:53:45;63.83;;;60.78;;
29210;SDS011;16250;49.932;10.980;2023-04-25T00:56:11;59.95;;;57.03;;
29210;SDS011;16250;49.932;10.980;2023-04-25T00:58:37;55.75;;;53.13;;
29210;SDS011;16250;49.932;10.980;2023-04-25T01:01:03;59.72;;;56.85;;
29210;SDS011;16250;49.932;10.980;2023-04-25T01:03:28;62.13;;;58.97;;
29210;SDS011;16250;49.932;10.980;2023-04-25T01:05:57;63.15;;;60.05;;
29210;SDS011;16250;49.932;10.980;2023-04-25T01:08:23;68.78;;;65.47;;
29210;SDS011;16250;49.932;10.980;2023-04-25T01:10:50;72.55;;;69.05;;
29210;SDS011;16250;49.932;10.980;2023-04-25T01:13:15;62.90;;;59.97;;
29210;SDS011;16250;49.932;10.980;2023-04-25T01:15:41;61.60;;;58.65;;
29210;SDS011;16250;49.932;10.980;2023-04-25T01:18:06;71.03;;;67.63;;
29210;SDS011;16250;49.932;10.980;2023-04-25T01:20:32;73.55;;;69.95;;
29210;SDS011;16250;49.932;10.980;2023-04-25T01:22:58;67.43;;;64.13;;
29210;SDS011;16250;49.932;10.980;2023-04-25T01:25:23;67.28;;;64.07;;
29210;SDS011;16250;49.932;10.980;2023-04-25T01:27:50;69.45;;;66.15;;
29210;SDS011;16250;49.932;10.980;2023-04-25T01:30:15;69.72;;;66.50;;
29210;SDS011;16250;49.932;10.980;2023-04-25T01:32:41;71.20;;;67.78;;
29210;SDS011;16250;49.932;10.980;2023-04-25T01:35:08;70.78;;;67.22;;
29210;SDS011;16250;49.932;10.980;2023-04-25T01:37:41;68.45;;;65.25;;
29210;SDS011;16250;49.932;10.980;2023-04-25T01:40:09;63.50;;;60.50;;
29210;SDS011;16250;49.932;10.980;2023-04-25T01:42:36;65.43;;;62.35;;
29210;SDS011;16250;49.932;10.980;2023-04-25T01:45:03;62.75;;;59.75;;
29210;SDS011;16250;49.932;10.980;2023-04-25T01:47:30;67.30;;;64.10;;
29210;SDS011;16250;49.932;10.980;2023-04-25T01:49:55;62.95;;;59.95;;
29210;SDS011;16250;49.932;10.980;2023-04-25T01:52:21;60.83;;;57.83;;
29210;SDS011;16250;49.932;10.980;2023-04-25T01:54:47;58.75;;;55.88;;
29210;SDS011;16250;49.932;10.980;2023-04-25T01:57:13;61.47;;;58.58;;
29210;SDS011;16250;49.932;10.980;2023-04-25T01:59:41;58.95;;;56.25;;
29210;SDS011;16250;49.932;10.980;2023-04-25T02:02:23;57.90;;;54.80;;
29210;SDS011;16250;49.932;10.980;2023-04-25T02:04:49;56.60;;;53.90;;
29210;SDS011;16250;49.932;10.980;2023-04-25T02:07:15;63.97;;;60.90;;
29210;SDS011;16250;49.932;10.980;2023-04-25T02:09:50;70.07;;;66.82;;
29210;SDS011;16250;49.932;10.980;2023-04-25T02:12:17;63.47;;;60.53;;
29210;SDS011;16250;49.932;10.980;2023-04-25T02:15:16;60.17;;;57.33;;
29210;SDS011;16250;49.932;10.980;2023-04-25T02:17:49;58.33;;;55.53;;
29210;SDS011;16250;49.932;10.980;2023-04-25T02:20:14;60.92;;;58.10;;
29210;SDS011;16250;49.932;10.980;2023-04-25T02:22:41;56.47;;;53.78;;
29210;SDS011;16250;49.932;10.980;2023-04-25T02:25:07;58.25;;;55.47;;
29210;SDS011;16250;49.932;10.980;2023-04-25T02:27:34;56.10;;;53.40;;
29210;SDS011;16250;49.932;10.980;2023-04-25T02:30:00;60.20;;;57.30;;
29210;SDS011;16250;49.932;10.980;2023-04-25T02:32:25;61.50;;;58.53;;
29210;SDS011;16250;49.932;10.980;2023-04-25T02:34:52;62.72;;;59.42;;
29210;SDS011;16250;49.932;10.980;2023-04-25T02:37:18;65.97;;;62.70;;
29210;SDS011;16250;49.932;10.980;2023-04-25T02:39:44;61.47;;;58.47;;
29210;SDS011;16250;49.932;10.980;2023-04-25T02:42:11;61.63;;;58.58;;
29210;SDS011;16250;49.932;10.980;2023-04-25T02:44:36;59.75;;;56.65;;
29210;SDS011;16250;49.932;10.980;2023-04-25T02:47:04;61.13;;;58.13;;
29210;SDS011;16250;49.932;10.980;2023-04-25T02:49:29;63.40;;;60.30;;
29210;SDS011;16250;49.932;10.980;2023-04-25T02:51:55;66.10;;;62.72;;
29210;SDS011;16250;49.932;10.980;2023-04-25T02:54:20;68.07;;;64.85;;
29210;SDS011;16250;49.932;10.980;2023-04-25T02:56:47;72.70;;;69.15;;
29210;SDS011;16250;49.932;10.980;2023-04-25T02:59:18;66.00;;;62.75;;
29210;SDS011;16250;49.932;10.980;2023-04-25T03:01:43;62.05;;;59.05;;
29210;SDS011;16250;49.932;10.980;2023-04-25T03:04:10;67.47;;;64.07;;
29210;SDS011;16250;49.932;10.980;2023-04-25T03:06:35;66.97;;;63.67;;
29210;SDS011;16250;49.932;10.980;2023-04-25T03:09:01;70.45;;;66.95;;
29210;SDS011;16250;49.932;10.980;2023-04-25T03:11:26;71.93;;;68.43;;
29210;SDS011;16250;49.932;10.980;2023-04-25T03:13:52;68.47;;;64.93;;
29210;SDS011;16250;49.932;10.980;2023-04-25T03:16:19;68.78;;;65.28;;
29210;SDS011;16250;49.932;10.980;2023-04-25T03:18:44;64.95;;;61.53;;
29210;SDS011;16250;49.932;10.980;2023-04-25T03:21:10;61.42;;;58.38;;
29210;SDS011;16250;49.932;10.980;2023-04-25T03:23:35;65.75;;;62.33;;
29210;SDS011;16250;49.932;10.980;2023-04-25T03:26:01;67.85;;;64.25;;
29210;SDS011;16250;49.932;10.980;2023-04-25T03:28:26;65.15;;;61.78;;
29210;SDS011;16250;49.932;10.980;2023-04-25T03:30:53;63.28;;;60.00;;
29210;SDS011;16250;49.932;10.980;2023-04-25T03:33:19;71.45;;;67.00;;
29210;SDS011;16250;49.932;10.980;2023-04-25T03:35:44;72.07;;;68.28;;
29210;SDS011;16250;49.932;10.980;2023-04-25T03:38:10;69.72;;;66.13;;
29210;SDS011;16250;49.932;10.980;2023-04-25T03:40:38;69.55;;;65.75;;
29210;SDS011;16250;49.932;10.980;2023-04-25T03:43:08;70.40;;;66.55;;
29210;SDS011;16250;49.932;10.980;2023-04-25T03:45:34;70.55;;;66.43;;
29210;SDS011;16250;49.932;10.980;2023-04-25T03:48:00;72.65;;;68.60;;
29210;SDS011;16250;49.932;10.980;2023-04-25T03:50:27;68.35;;;64.45;;
29210;SDS011;16250;49.932;10.980;2023-04-25T03:52:53;70.43;;;66.40;;
29210;SDS011;16250;49.932;10.980;2023-04-25T03:55:18;69.10;;;65.13;;
29210;SDS011;16250;49.932;10.980;2023-04-25T03:57:44;69.20;;;65.28;;
29210;SDS011;16250;49.932;10.980;2023-04-25T04:00:09;66.30;;;62.33;;
29210;SDS011;16250;49.932;10.980;2023-04-25T04:02:41;66.88;;;63.38;;
29210;SDS011;16250;49.932;10.980;2023-04-25T04:05:08;64.90;;;61.03;;
29210;SDS011;16250;49.932;10.980;2023-04-25T04:07:37;67.13;;;63.28;;
29210;SDS011;16250;49.932;10.980;2023-04-25T04:10:06;65.13;;;61.53;;
29210;SDS011;16250;49.932;10.980;2023-04-25T04:12:35;66.53;;;62.72;;
29210;SDS011;16250;49.932;10.980;2023-04-25T04:15:04;69.65;;;65.82;;
29210;SDS011;16250;49.932;10.980;2023-04-25T04:17:31;65.05;;;61.53;;
29210;SDS011;16250;49.932;10.980;2023-04-25T04:19:57;67.05;;;63.38;;
29210;SDS011;16250;49.932;10.980;2023-04-25T04:22:23;65.50;;;61.80;;
29210;SDS011;16250;49.932;10.980;2023-04-25T04:24:50;62.58;;;59.08;;
29210;SDS011;16250;49.932;10.980;2023-04-25T04:27:21;62.88;;;59.50;;
29210;SDS011;16250;49.932;10.980;2023-04-25T04:29:52;65.00;;;61.33;;
29210;SDS011;16250;49.932;10.980;2023-04-25T04:32:41;58.97;;;55.88;;
29210;SDS011;16250;49.932;10.980;2023-04-25T04:35:06;57.78;;;54.50;;
29210;SDS011;16250;49.932;10.980;2023-04-25T04:37:34;57.42;;;54.35;;
29210;SDS011;16250;49.932;10.980;2023-04-25T04:40:01;59.90;;;56.70;;
29210;SDS011;16250;49.932;10.980;2023-04-25T04:42:41;59.55;;;56.42;;
29210;SDS011;16250;49.932;10.980;2023-04-25T04:45:15;58.92;;;55.53;;
29210;SDS011;16250;49.932;10.980;2023-04-25T04:48:07;60.38;;;57.13;;
29210;SDS011;16250;49.932;10.980;2023-04-25T04:50:42;61.92;;;58.60;;
29210;SDS011;16250;49.932;10.980;2023-04-25T04:53:22;58.63;;;55.45;;
29210;SDS011;16250;49.932;10.980;2023-04-25T04:55:50;59.63;;;56.47;;
29210;SDS011;16250;49.932;10.980;2023-04-25T04:58:51;59.17;;;55.83;;
29210;SDS011;16250;49.932;10.980;2023-04-25T05:01:34;60.67;;;57.15;;
29210;SDS011;16250;49.932;10.980;2023-04-25T05:04:08;58.35;;;55.35;;
29210;SDS011;16250;49.932;10.980;2023-04-25T05:06:45;57.67;;;54.53;;
29210;SDS011;16250;49.932;10.980;2023-04-25T05:09:26;62.55;;;59.35;;
29210;SDS011;16250;49.932;10.980;2023-04-25T05:12:10;59.83;;;56.78;;
29210;SDS011;16250;49.932;10.980;2023-04-25T05:15:01;57.17;;;54.33;;
29210;SDS011;16250;49.932;10.980;2023-04-25T05:17:51;61.47;;;58.42;;
29210;SDS011;16250;49.932;10.980;2023-04-25T05:20:24;59.28;;;56.25;;
29210;SDS011;16250;49.932;10.980;2023-04-25T05:23:02;61.25;;;57.90;;
29210;SDS011;16250;49.932;10.980;2023-04-25T05:26:01;55.35;;;52.70;;
29210;SDS011;16250;49.932;10.980;2023-04-25T05:28:59;50.78;;;48.28;;
29210;SDS011;16250;49.932;10.980;2023-04-25T05:31:36;41.15;;;39.10;;
29210;SDS011;16250;49.932;10.980;2023-04-25T05:34:08;28.67;;;27.27;;
29210;SDS011;16250;49.932;10.980;2023-04-25T05:36:42;28.75;;;27.05;;
29210;SDS011;16250;49.932;10.980;2023-04-25T05:39:07;37.55;;;35.70;;
29210;SDS011;16250;49.932;10.980;2023-04-25T05:41:52;30.52;;;28.92;;
29210;SDS011;16250;49.932;10.980;2023-04-25T05:44:47;34.83;;;32.97;;
29210;SDS011;16250;49.932;10.980;2023-04-25T05:47:21;40.25;;;38.22;;
29210;SDS011;16250;49.932;10.980;2023-04-25T05:50:09;55.05;;;52.35;;
29210;SDS011;16250;49.932;10.980;2023-04-25T05:52:44;49.95;;;47.42;;
29210;SDS011;16250;49.932;10.980;2023-04-25T05:55:22;52.20;;;49.58;;
29210;SDS011;16250;49.932;10.980;2023-04-25T05:57:48;46.40;;;44.30;;
29210;SDS011;16250;49.932;10.980;2023-04-25T06:00:13;53.22;;;50.45;;
29210;SDS011;16250;49.932;10.980;2023-04-25T06:02:42;54.80;;;52.22;;
29210;SDS011;16250;49.932;10.980;2023-04-25T06:05:09;58.67;;;55.72;;
29210;SDS011;16250;49.932;10.980;2023-04-25T06:07:34;62.13;;;59.13;;
29210;SDS011;16250;49.932;10.980;2023-04-25T06:10:01;64.40;;;60.97;;
29210;SDS011;16250;49.932;10.980;2023-04-25T06:12:28;65.72;;;62.03;;
29210;SDS011;16250;49.932;10.980;2023-04-25T06:14:54;66.55;;;62.90;;
29210;SDS011;16250;49.932;10.980;2023-04-25T06:17:20;70.50;;;66.50;;
29210;SDS011;16250;49.932;10.980;2023-04-25T06:19:48;71.82;;;67.53;;
29210;SDS011;16250;49.932;10.980;2023-04-25T06:22:13;71.38;;;67.07;;
29210;SDS011;16250;49.932;10.980;2023-04-25T06:24:40;70.72;;;66.43;;
29210;SDS011;16250;49.932;10.980;2023-04-25T06:27:05;69.53;;;65.30;;
29210;SDS011;16250;49.932;10.980;2023-04-25T06:29:31;64.45;;;60.45;;
29210;SDS011;16250;49.932;10.980;2023-04-25T06:31:57;58.22;;;55.17;;
29210;SDS011;16250;49.932;10.980;2023-04-25T06:34:22;66.80;;;63.10;;
29210;SDS011;16250;49.932;10.980;2023-04-25T06:36:48;67.25;;;63.05;;
29210;SDS011;16250;49.932;10.980;2023-04-25T06:39:15;71.65;;;66.65;;
29210;SDS011;16250;49.932;10.980;2023-04-25T06:41:40;71.40;;;66.90;;
29210;SDS011;16250;49.932;10.980;2023-04-25T06:44:13;68.47;;;64.40;;
29210;SDS011;16250;49.932;10.980;2023-04-25T06:46:47;70.82;;;66.18;;
29210;SDS011;16250;49.932;10.980;2023-04-25T06:49:13;71.18;;;66.78;;
29210;SDS011;16250;49.932;10.980;2023-04-25T06:51:38;73.60;;;69.10;;
29210;SDS011;16250;49.932;10.980;2023-04-25T06:54:04;72.10;;;67.38;;
29210;SDS011;16250;49.932;10.980;2023-04-25T06:56:38;75.97;;;71.18;;
29210;SDS011;16250;49.932;10.980;2023-04-25T06:59:09;74.20;;;69.28;;
29210;SDS011;16250;49.932;10.980;2023-04-25T07:01:37;68.45;;;64.10;;
29210;SDS011;16250;49.932;10.980;2023-04-25T07:04:07;71.57;;;67.00;;
29210;SDS011;16250;49.932;10.980;2023-04-25T07:06:36;77.35;;;72.57;;
29210;SDS011;16250;49.932;10.980;2023-04-25T07:09:10;77.82;;;72.93;;
29210;SDS011;16250;49.932;10.980;2023-04-25T07:11:36;80.78;;;75.63;;
29210;SDS011;16250;49.932;10.980;2023-04-25T07:14:02;78.50;;;73.45;;
29210;SDS011;16250;49.932;10.980;2023-04-25T07:16:28;72.60;;;68.40;;
29210;SDS011;16250;49.932;10.980;2023-04-25T07:18:53;75.45;;;70.95;;
29210;SDS011;16250;49.932;10.980;2023-04-25T07:21:18;64.10;;;60.53;;
29210;SDS011;16250;49.932;10.980;2023-04-25T07:23:45;71.95;;;67.65;;
29210;SDS011;16250;49.932;10.980;2023-04-25T07:26:15;57.83;;;54.60;;
29210;SDS011;16250;49.932;10.980;2023-04-25T07:29:01;51.42;;;48.50;;
29210;SDS011;16250;49.932;10.980;2023-04-25T07:31:26;52.60;;;49.65;;
29210;SDS011;16250;49.932;10.980;2023-04-25T07:33:51;56.83;;;53.58;;
29210;SDS011;16250;49.932;10.980;2023-04-25T07:36:17;61.15;;;57.47;;
29210;SDS011;16250;49.932;10.980;2023-04-25T07:38:43;48.40;;;45.35;;
29210;SDS011;16250;49.932;10.980;2023-04-25T07:41:09;61.28;;;57.75;;
29210;SDS011;16250;49.932;10.980;2023-04-25T07:43:35;47.38;;;44.42;;
29210;SDS011;16250;49.932;10.980;2023-04-25T07:46:02;42.60;;;39.85;;
29210;SDS011;16250;49.932;10.980;2023-04-25T07:48:31;44.10;;;41.30;;
29210;SDS011;16250;49.932;10.980;2023-04-25T07:50:56;34.47;;;32.17;;
29210;SDS011;16250;49.932;10.980;2023-04-25T07:53:22;37.53;;;35.05;;
29210;SDS011;16250;49.932;10.980;2023-04-25T07:55:55;36.03;;;33.72;;
29210;SDS011;16250;49.932;10.980;2023-04-25T07:58:21;48.10;;;45.33;;
29210;SDS011;16250;49.932;10.980;2023-04-25T08:00:48;31.63;;;29.52;;
29210;SDS011;16250;49.932;10.980;2023-04-25T08:03:29;36.38;;;33.88;;
29210;SDS011;16250;49.932;10.980;2023-04-25T08:05:55;51.35;;;47.78;;
29210;SDS011;16250;49.932;10.980;2023-04-25T08:08:22;46.03;;;42.92;;
29210;SDS011;16250;49.932;10.980;2023-04-25T08:10:49;33.20;;;30.73;;
29210;SDS011;16250;49.932;10.980;2023-04-25T08:13:15;35.28;;;32.70;;
29210;SDS011;16250;49.932;10.980;2023-04-25T08:15:41;24.05;;;22.05;;
29210;SDS011;16250;49.932;10.980;2023-04-25T08:18:06;35.08;;;32.53;;
29210;SDS011;16250;49.932;10.980;2023-04-25T08:20:32;20.83;;;19.27;;
29210;SDS011;16250;49.932;10.980;2023-04-25T08:23:00;12.73;;;11.55;;
29210;SDS011;16250;49.932;10.980;2023-04-25T08:25:41;18.48;;;16.88;;
29210;SDS011;16250;49.932;10.980;2023-04-25T08:28:08;19.05;;;17.50;;
29210;SDS011;16250;49.932;10.980;2023-04-25T08:30:34;14.70;;;13.48;;
29210;SDS011;16250;49.932;10.980;2023-04-25T08:33:01;20.13;;;18.40;;
29210;SDS011;16250;49.932;10.980;2023-04-25T08:35:45;16.42;;;14.95;;
29210;SDS011;16250;49.932;10.980;2023-04-25T08:38:11;12.93;;;11.75;;
29210;SDS011;16250;49.932;10.980;2023-04-25T08:40:37;11.00;;;10.00;;
29210;SDS011;16250;49.932;10.980;2023-04-25T08:43:07;12.05;;;11.05;;
29210;SDS011;16250;49.932;10.980;2023-04-25T08:45:40;12.57;;;11.38;;
29210;SDS011;16250;49.932;10.980;2023-04-25T08:48:09;13.43;;;12.23;;
29210;SDS011;16250;49.932;10.980;2023-04-25T08:50:40;12.98;;;11.82;;
29210;SDS011;16250;49.932;10.980;2023-04-25T08:53:10;12.50;;;10.32;;
29210;SDS011;16250;49.932;10.980;2023-04-25T08:55:41;10.13;;;8.15;;
29210;SDS011;16250;49.932;10.980;2023-04-25T08:58:09;14.35;;;9.77;;
29210;SDS011;16250;49.932;10.980;2023-04-25T09:00:35;8.75;;;7.72;;
29210;SDS011;16250;49.932;10.980;2023-04-25T09:03:00;9.85;;;6.90;;
29210;SDS011;16250;49.932;10.980;2023-04-25T09:05:30;8.23;;;6.72;;
29210;SDS011;16250;49.932;10.980;2023-04-25T09:07:57;8.60;;;5.70;;
29210;SDS011;16250;49.932;10.980;2023-04-25T09:10:23;7.53;;;5.47;;
29210;SDS011;16250;49.932;10.980;2023-04-25T09:16:17;10.07;;;5.70;;
29210;SDS011;16250;49.932;10.980;2023-04-25T09:19:05;7.82;;;4.85;;
29210;SDS011;16250;49.932;10.980;2023-04-25T09:21:32;7.88;;;5.15;;
29210;SDS011;16250;49.932;10.980;2023-04-25T09:23:58;5.85;;;4.60;;
29210;SDS011;16250;49.932;10.980;2023-04-25T09:26:25;8.25;;;5.38;;
29210;SDS011;16250;49.932;10.980;2023-04-25T09:28:57;7.53;;;5.28;;
29210;SDS011;16250;49.932;10.980;2023-04-25T09:31:30;5.78;;;4.80;;
29210;SDS011;16250;49.932;10.980;2023-04-25T09:34:00;7.40;;;4.85;;
29210;SDS011;16250;49.932;10.980;2023-04-25T09:36:27;8.35;;;4.60;;
29210;SDS011;16250;49.932;10.980;2023-04-25T09:39:20;6.13;;;4.43;;
29210;SDS011;16250;49.932;10.980;2023-04-25T09:41:54;6.80;;;4.07;;
29210;SDS011;16250;49.932;10.980;2023-04-25T09:44:23;6.05;;;3.90;;
29210;SDS011;16250;49.932;10.980;2023-04-25T09:46:50;5.18;;;4.20;;
29210;SDS011;16250;49.932;10.980;2023-04-25T09:49:20;6.80;;;4.20;;
29210;SDS011;16250;49.932;10.980;2023-04-25T09:51:58;5.05;;;4.25;;
29210;SDS011;16250;49.932;10.980;2023-04-25T09:54:30;5.28;;;4.05;;
29210;SDS011;16250;49.932;10.980;2023-04-25T09:57:10;5.30;;;4.22;;
29210;SDS011;16250;49.932;10.980;2023-04-25T09:59:39;7.82;;;4.25;;
29210;SDS011;16250;49.932;10.980;2023-04-25T10:02:09;7.28;;;3.55;;
29210;SDS011;16250;49.932;10.980;2023-04-25T10:04:39;5.80;;;3.08;;
29210;SDS011;16250;49.932;10.980;2023-04-25T10:07:25;4.05;;;2.70;;
29210;SDS011;16250;49.932;10.980;2023-04-25T10:10:00;5.38;;;3.00;;
29210;SDS011;16250;49.932;10.980;2023-04-25T10:12:29;4.15;;;2.83;;
29210;SDS011;16250;49.932;10.980;2023-04-25T10:14:56;4.22;;;2.40;;
29210;SDS011;16250;49.932;10.980;2023-04-25T10:17:22;4.25;;;2.38;;
29210;SDS011;16250;49.932;10.980;2023-04-25T10:19:55;2.03;;;1.80;;
29210;SDS011;16250;49.932;10.980;2023-04-25T10:22:23;2.80;;;1.60;;
29210;SDS011;16250;49.932;10.980;2023-04-25T10:24:53;2.53;;;1.88;;
29210;SDS011;16250;49.932;10.980;2023-04-25T10:27:20;1.80;;;1.65;;
29210;SDS011;16250;49.932;10.980;2023-04-25T10:29:45;1.88;;;1.40;;
29210;SDS011;16250;49.932;10.980;2023-04-25T10:32:25;1.55;;;1.45;;
29210;SDS011;16250;49.932;10.980;2023-04-25T10:34:50;2.78;;;1.65;;
29210;SDS011;16250;49.932;10.980;2023-04-25T10:37:16;2.58;;;2.25;;
29210;SDS011;16250;49.932;10.980;2023-04-25T10:39:42;1.63;;;1.50;;
29210;SDS011;16250;49.932;10.980;2023-04-25T10:42:07;3.47;;;1.67;;
29210;SDS011;16250;49.932;10.980;2023-04-25T10:44:33;2.10;;;1.52;;
29210;SDS011;16250;49.932;10.980;2023-04-25T10:46:59;2.13;;;1.45;;
29210;SDS011;16250;49.932;10.980;2023-04-25T10:49:41;2.40;;;1.77;;
29210;SDS011;16250;49.932;10.980;2023-04-25T10:52:10;3.17;;;1.83;;
29210;SDS011;16250;49.932;10.980;2023-04-25T10:54:40;3.28;;;1.63;;
29210;SDS011;16250;49.932;10.980;2023-04-25T10:57:06;3.65;;;1.70;;
29210;SDS011;16250;49.932;10.980;2023-04-25T10:59:31;2.67;;;1.70;;
29210;SDS011;16250;49.932;10.980;2023-04-25T11:01:56;1.80;;;1.60;;
29210;SDS011;16250;49.932;10.980;2023-04-25T11:04:23;2.00;;;1.80;;
29210;SDS011;16250;49.932;10.980;2023-04-25T11:09:32;1.85;;;1.60;;
29210;SDS011;16250;49.932;10.980;2023-04-25T11:12:01;3.38;;;1.85;;
29210;SDS011;16250;49.932;10.980;2023-04-25T11:14:26;3.28;;;2.38;;
29210;SDS011;16250;49.932;10.980;2023-04-25T11:16:56;2.25;;;2.05;;
29210;SDS011;16250;49.932;10.980;2023-04-25T11:19:22;2.88;;;2.00;;
29210;SDS011;16250;49.932;10.980;2023-04-25T11:21:48;2.70;;;1.90;;
29210;SDS011;16250;49.932;10.980;2023-04-25T11:24:13;2.22;;;1.95;;
29210;SDS011;16250;49.932;10.980;2023-04-25T11:26:41;2.75;;;2.10;;
29210;SDS011;16250;49.932;10.980;2023-04-25T11:29:07;4.45;;;2.40;;
29210;SDS011;16250;49.932;10.980;2023-04-25T11:31:32;3.42;;;2.80;;
29210;SDS011;16250;49.932;10.980;2023-04-25T11:33:57;2.97;;;2.47;;
29210;SDS011;16250;49.932;10.980;2023-04-25T11:36:23;3.58;;;2.65;;
29210;SDS011;16250;49.932;10.980;2023-04-25T11:38:50;4.03;;;2.55;;
29210;SDS011;16250;49.932;10.980;2023-04-25T11:41:16;5.10;;;2.47;;
29210;SDS011;16250;49.932;10.980;2023-04-25T11:43:43;2.38;;;2.17;;
29210;SDS011;16250;49.932;10.980;2023-04-25T11:46:08;4.85;;;2.40;;
29210;SDS011;16250;49.932;10.980;2023-04-25T11:48:38;3.40;;;2.60;;
29210;SDS011;16250;49.932;10.980;2023-04-25T11:51:04;2.78;;;2.50;;
29210;SDS011;16250;49.932;10.980;2023-04-25T11:53:29;3.30;;;2.40;;
29210;SDS011;16250;49.932;10.980;2023-04-25T11:55:54;2.50;;;2.22;;
29210;SDS011;16250;49.932;10.980;2023-04-25T11:58:21;3.03;;;2.17;;
29210;SDS011;16250;49.932;10.980;2023-04-25T12:00:46;2.85;;;2.10;;
29210;SDS011;16250;49.932;10.980;2023-04-25T12:03:11;3.60;;;2.65;;
29210;SDS011;16250;49.932;10.980;2023-04-25T12:05:37;3.20;;;2.80;;
29210;SDS011;16250;49.932;10.980;2023-04-25T12:08:09;2.97;;;2.67;;
29210;SDS011;16250;49.932;10.980;2023-04-25T12:10:37;3.20;;;2.90;;
29210;SDS011;16250;49.932;10.980;2023-04-25T12:13:17;3.08;;;2.60;;
29210;SDS011;16250;49.932;10.980;2023-04-25T12:15:46;4.10;;;2.58;;
29210;SDS011;16250;49.932;10.980;2023-04-25T12:18:12;2.90;;;2.38;;
29210;SDS011;16250;49.932;10.980;2023-04-25T12:20:37;3.38;;;2.40;;
29210;SDS011;16250;49.932;10.980;2023-04-25T12:23:05;3.42;;;2.53;;
29210;SDS011;16250;49.932;10.980;2023-04-25T12:25:39;2.95;;;2.40;;
29210;SDS011;16250;49.932;10.980;2023-04-25T12:28:22;5.47;;;2.67;;
29210;SDS011;16250;49.932;10.980;2023-04-25T12:30:53;2.92;;;2.55;;
29210;SDS011;16250;49.932;10.980;2023-04-25T12:33:22;3.20;;;2.50;;
29210;SDS011;16250;49.932;10.980;2023-04-25T12:35:48;3.13;;;2.55;;
29210;SDS011;16250;49.932;10.980;2023-04-25T12:38:20;3.55;;;2.35;;
29210;SDS011;16250;49.932;10.980;2023-04-25T12:40:56;2.38;;;2.17;;
29210;SDS011;16250;49.932;10.980;2023-04-25T12:43:21;3.42;;;2.80;;
29210;SDS011;16250;49.932;10.980;2023-04-25T12:45:47;3.30;;;2.40;;
29210;SDS011;16250;49.932;10.980;2023-04-25T12:48:16;5.57;;;3.92;;
29210;SDS011;16250;49.932;10.980;2023-04-25T12:50:42;3.10;;;2.80;;
29210;SDS011;16250;49.932;10.980;2023-04-25T12:53:08;3.03;;;2.38;;
29210;SDS011;16250;49.932;10.980;2023-04-25T12:55:33;3.42;;;2.50;;
29210;SDS011;16250;49.932;10.980;2023-04-25T12:57:59;2.55;;;2.35;;
29210;SDS011;16250;49.932;10.980;2023-04-25T13:00:24;3.00;;;2.70;;
29210;SDS011;16250;49.932;10.980;2023-04-25T13:02:49;2.63;;;2.42;;
29210;SDS011;16250;49.932;10.980;2023-04-25T13:05:15;3.03;;;2.70;;
29210;SDS011;16250;49.932;10.980;2023-04-25T13:07:40;2.67;;;2.45;;
29210;SDS011;16250;49.932;10.980;2023-04-25T13:10:06;3.97;;;2.80;;
29210;SDS011;16250;49.932;10.980;2023-04-25T13:12:32;5.50;;;3.38;;
29210;SDS011;16250;49.932;10.980;2023-04-25T13:14:58;4.47;;;3.08;;
29210;SDS011;16250;49.932;10.980;2023-04-25T13:17:23;2.95;;;2.60;;
29210;SDS011;16250;49.932;10.980;2023-04-25T13:19:48;4.10;;;3.30;;
29210;SDS011;16250;49.932;10.980;2023-04-25T13:22:14;3.22;;;2.63;;
29210;SDS011;16250;49.932;10.980;2023-04-25T13:24:41;2.63;;;1.90;;
29210;SDS011;16250;49.932;10.980;2023-04-25T13:27:07;3.10;;;2.80;;
29210;SDS011;16250;49.932;10.980;2023-04-25T13:29:32;4.28;;;2.25;;
29210;SDS011;16250;49.932;10.980;2023-04-25T13:31:59;5.72;;;2.30;;
29210;SDS011;16250;49.932;10.980;2023-04-25T13:34:25;2.92;;;2.20;;
29210;SDS011;16250;49.932;10.980;2023-04-25T13:36:51;2.63;;;2.03;;
29210;SDS011;16250;49.932;10.980;2023-04-25T13:39:16;2.67;;;2.45;;
29210;SDS011;16250;49.932;10.980;2023-04-25T13:41:41;3.35;;;2.15;;
29210;SDS011;16250;49.932;10.980;2023-04-25T13:44:07;2.80;;;2.38;;
29210;SDS011;16250;49.932;10.980;2023-04-25T13:46:32;3.83;;;2.70;;
29210;SDS011;16250;49.932;10.980;2023-04-25T13:48:57;3.25;;;2.33;;
29210;SDS011;16250;49.932;10.980;2023-04-25T13:51:23;2.70;;;2.30;;
29210;SDS011;16250;49.932;10.980;2023-04-25T13:53:48;3.50;;;2.28;;
29210;SDS011;16250;49.932;10.980;2023-04-25T13:56:13;3.47;;;2.38;;
29210;SDS011;16250;49.932;10.980;2023-04-25T13:58:39;2.90;;;2.40;;
29210;SDS011;16250;49.932;10.980;2023-04-25T14:01:05;2.97;;;2.50;;
29210;SDS011;16250;49.932;10.980;2023-04-25T14:03:30;3.70;;;2.35;;
29210;SDS011;16250;49.932;10.980;2023-04-25T14:05:56;3.33;;;2.42;;
29210;SDS011;16250;49.932;10.980;2023-04-25T14:08:21;3.33;;;2.38;;
29210;SDS011;16250;49.932;10.980;2023-04-25T14:10:47;3.58;;;2.15;;
29210;SDS011;16250;49.932;10.980;2023-04-25T14:13:12;4.55;;;2.58;;
29210;SDS011;16250;49.932;10.980;2023-04-25T14:15:37;4.28;;;2.45;;
29210;SDS011;16250;49.932;10.980;2023-04-25T14:18:03;3.00;;;2.50;;
29210;SDS011;16250;49.932;10.980;2023-04-25T14:20:28;5.57;;;3.30;;
29210;SDS011;16250;49.932;10.980;2023-04-25T14:22:54;4.28;;;3.22;;
29210;SDS011;16250;49.932;10.980;2023-04-25T14:25:22;5.65;;;3.60;;
29210;SDS011;16250;49.932;10.980;2023-04-25T14:27:48;6.57;;;3.83;;
29210;SDS011;16250;49.932;10.980;2023-04-25T14:30:18;5.95;;;3.67;;
29210;SDS011;16250;49.932;10.980;2023-04-25T14:32:44;5.40;;;3.70;;